createdAt,value
2023-03-15T00:00:10.196Z,8.78
2023-03-15T00:03:04.341Z,8.77
2023-03-15T00:05:34.549Z,8.76
2023-03-15T00:08:07.181Z,8.74
2023-03-15T00:10:38.944Z,8.74
2023-03-15T00:13:11.952Z,8.74
2023-03-15T00:15:49.960Z,8.74
2023-03-15T00:18:22.833Z,8.75
2023-03-15T00:20:54.671Z,8.76
2023-03-15T00:23:27.117Z,8.77
2023-03-15T00:25:58.970Z,8.78
2023-03-15T00:28:31.354Z,8.80
2023-03-15T00:31:12.640Z,8.80
2023-03-15T00:33:44.791Z,8.82
2023-03-15T00:36:17.440Z,8.83
2023-03-15T00:38:49.538Z,8.84
2023-03-15T00:41:21.910Z,8.86
2023-03-15T00:43:54.464Z,8.87
2023-03-15T00:46:26.215Z,8.89
2023-03-15T00:48:58.683Z,8.93
2023-03-15T00:51:30.974Z,8.98
2023-03-15T00:54:03.434Z,8.94
2023-03-15T00:56:35.167Z,8.72
2023-03-15T00:59:07.718Z,8.41
2023-03-15T01:01:44.667Z,8.04
2023-03-15T01:04:16.936Z,7.59
2023-03-15T01:06:48.737Z,7.10
2023-03-15T01:09:20.841Z,6.68
2023-03-15T01:11:53.641Z,6.31
2023-03-15T01:14:25.812Z,5.91
2023-03-15T01:16:57.553Z,5.61
2023-03-15T01:19:29.594Z,5.29
2023-03-15T01:22:01.411Z,5.10
2023-03-15T01:24:33.546Z,4.92
2023-03-15T01:27:05.339Z,4.76
2023-03-15T01:29:37.578Z,4.56
2023-03-15T01:32:10.148Z,4.45
2023-03-15T01:34:43.411Z,4.31
2023-03-15T01:37:15.452Z,4.23
2023-03-15T01:39:49.998Z,4.16
2023-03-15T01:42:22.056Z,4.08
2023-03-15T01:45:00.225Z,4.01
2023-03-15T01:47:32.881Z,3.94
2023-03-15T01:50:07.705Z,3.89
2023-03-15T01:52:41.031Z,3.81
2023-03-15T01:55:15.233Z,3.69
2023-03-15T01:57:46.404Z,3.58
2023-03-15T02:00:21.556Z,3.51
2023-03-15T02:02:56.110Z,3.45
2023-03-15T02:05:30.108Z,3.40
2023-03-15T02:08:02.572Z,3.35
2023-03-15T02:10:38.862Z,3.29
2023-03-15T02:13:10.888Z,3.25
2023-03-15T02:15:47.019Z,3.20
2023-03-15T02:18:19.457Z,3.14
2023-03-15T02:20:57.428Z,3.09
2023-03-15T02:23:29.717Z,3.05
2023-03-15T02:26:07.736Z,3.03
2023-03-15T02:28:39.697Z,3.01
2023-03-15T02:31:12.202Z,3.00
2023-03-15T02:33:47.076Z,2.99
2023-03-15T02:36:21.519Z,3.00
2023-03-15T02:38:54.609Z,2.99
2023-03-15T02:41:28.045Z,2.97
2023-03-15T02:44:03.238Z,2.98
2023-03-15T02:46:35.522Z,2.98
2023-03-15T02:49:07.676Z,2.99
2023-03-15T02:51:39.936Z,3.00
2023-03-15T02:54:11.701Z,2.99
2023-03-15T02:56:44.116Z,2.99
2023-03-15T02:59:15.933Z,2.98
2023-03-15T03:01:47.992Z,2.96
2023-03-15T03:04:19.812Z,2.97
2023-03-15T03:06:52.044Z,2.96
2023-03-15T03:09:23.857Z,2.95
2023-03-15T03:11:56.196Z,2.96
2023-03-15T03:14:28.006Z,2.95
2023-03-15T03:17:00.288Z,2.95
2023-03-15T03:19:32.149Z,2.96
2023-03-15T03:22:04.556Z,2.97
2023-03-15T03:24:36.319Z,2.98
2023-03-15T03:27:08.619Z,3.00
2023-03-15T03:29:40.354Z,3.00
2023-03-15T03:32:12.920Z,3.00
2023-03-15T03:34:48.605Z,3.01
2023-03-15T03:37:21.484Z,3.03
2023-03-15T03:39:53.242Z,3.04
2023-03-15T03:42:25.285Z,3.06
2023-03-15T03:44:57.028Z,3.08
2023-03-15T03:47:29.086Z,3.09
2023-03-15T03:50:00.843Z,3.10
2023-03-15T03:52:32.750Z,3.11
2023-03-15T03:55:06.026Z,3.11
2023-03-15T03:57:38.063Z,3.13
2023-03-15T04:00:14.308Z,3.13
2023-03-15T04:02:46.341Z,3.15
2023-03-15T04:05:18.276Z,3.17
2023-03-15T04:07:50.339Z,3.18
2023-03-15T04:10:27.139Z,3.19
2023-03-15T04:12:59.825Z,3.20
2023-03-15T04:15:31.658Z,3.20
2023-03-15T04:18:05.993Z,3.20
2023-03-15T04:20:36.224Z,3.22
2023-03-15T04:23:08.467Z,3.21
2023-03-15T04:25:40.227Z,3.23
2023-03-15T04:28:12.070Z,3.24
2023-03-15T04:30:46.633Z,3.26
2023-03-15T04:33:18.948Z,3.27
2023-03-15T04:35:52.765Z,3.28
2023-03-15T04:38:28.230Z,3.29
2023-03-15T04:41:00.015Z,3.30
2023-03-15T04:43:32.227Z,3.31
2023-03-15T04:46:04.040Z,3.32
2023-03-15T04:48:36.058Z,3.32
2023-03-15T04:51:08.259Z,3.32
2023-03-15T04:53:40.289Z,3.31
2023-03-15T04:56:12.159Z,3.29
2023-03-15T04:58:44.270Z,3.27
2023-03-15T05:01:16.418Z,3.27
2023-03-15T05:03:48.918Z,3.27
2023-03-15T05:06:20.675Z,3.27
2023-03-15T05:08:52.943Z,3.27
2023-03-15T05:11:24.782Z,3.28
2023-03-15T05:13:57.061Z,3.29
2023-03-15T05:16:28.888Z,3.29
2023-03-15T05:19:00.928Z,3.29
2023-03-15T05:21:33.442Z,3.28
2023-03-15T05:24:05.490Z,3.27
2023-03-15T05:26:37.281Z,3.28
2023-03-15T05:29:09.342Z,3.29
2023-03-15T05:31:41.177Z,3.29
2023-03-15T05:34:13.382Z,3.30
2023-03-15T05:36:45.196Z,3.28
2023-03-15T05:39:17.633Z,3.28
2023-03-15T05:41:49.421Z,3.27
2023-03-15T05:44:21.312Z,3.26
2023-03-15T05:46:53.172Z,3.24
2023-03-15T05:49:25.498Z,3.23
2023-03-15T05:51:57.286Z,3.23
2023-03-15T05:54:29.178Z,3.24
2023-03-15T05:57:01.004Z,3.27
2023-03-15T05:59:33.102Z,3.28
2023-03-15T06:02:05.156Z,3.29
2023-03-15T06:04:38.308Z,3.28
2023-03-15T06:07:10.221Z,3.28
2023-03-15T06:09:42.442Z,3.27
2023-03-15T06:12:14.878Z,3.23
2023-03-15T06:14:46.959Z,3.22
2023-03-15T06:17:18.712Z,3.21
2023-03-15T06:19:50.674Z,3.16
2023-03-15T06:22:24.628Z,3.13
2023-03-15T06:24:56.983Z,3.11
2023-03-15T06:27:28.743Z,3.11
2023-03-15T06:30:00.893Z,3.13
2023-03-15T06:32:32.865Z,3.15
2023-03-15T06:35:05.591Z,3.19
2023-03-15T06:37:37.419Z,3.22
2023-03-15T06:40:11.595Z,3.24
2023-03-15T06:42:43.766Z,3.26
2023-03-15T06:45:16.548Z,3.27
2023-03-15T06:47:48.272Z,3.27
2023-03-15T06:50:20.770Z,3.27
2023-03-15T06:52:52.562Z,3.28
2023-03-15T06:55:24.868Z,3.30
2023-03-15T06:57:56.617Z,3.33
2023-03-15T07:00:28.660Z,3.37
2023-03-15T07:03:00.444Z,3.41
2023-03-15T07:05:32.341Z,3.47
2023-03-15T07:08:04.196Z,3.50
2023-03-15T07:10:36.555Z,3.51
2023-03-15T07:13:09.470Z,3.52
2023-03-15T07:15:41.545Z,3.53
2023-03-15T07:18:13.352Z,3.55
2023-03-15T07:20:45.239Z,3.57
2023-03-15T07:23:17.045Z,3.57
2023-03-15T07:25:54.970Z,3.58
2023-03-15T07:28:28.028Z,3.56
2023-03-15T07:31:01.814Z,3.52
2023-03-15T07:33:35.876Z,3.54
2023-03-15T07:36:06.989Z,3.58
2023-03-15T07:38:41.318Z,3.56
2023-03-15T07:41:14.374Z,3.57
2023-03-15T07:43:46.272Z,3.63
2023-03-15T07:46:18.383Z,3.65
2023-03-15T07:48:50.297Z,3.66
2023-03-15T07:51:22.393Z,3.67
2023-03-15T07:53:54.169Z,3.69
2023-03-15T07:56:26.259Z,3.65
2023-03-15T07:58:58.035Z,3.62
2023-03-15T08:01:30.563Z,3.61
2023-03-15T08:04:02.500Z,3.64
2023-03-15T08:06:34.583Z,3.67
2023-03-15T08:09:06.856Z,3.68
2023-03-15T08:11:39.017Z,3.70
2023-03-15T08:14:10.838Z,3.73
2023-03-15T08:16:43.325Z,3.75
2023-03-15T08:19:15.196Z,3.76
2023-03-15T08:21:48.434Z,3.79
2023-03-15T08:24:20.249Z,3.80
2023-03-15T08:26:52.375Z,3.81
2023-03-15T08:29:24.153Z,3.81
2023-03-15T08:31:56.818Z,3.85
2023-03-15T08:34:28.915Z,3.90
2023-03-15T08:37:01.764Z,3.96
2023-03-15T08:39:36.429Z,4.05
2023-03-15T08:42:08.948Z,4.09
2023-03-15T08:44:40.816Z,4.10
2023-03-15T08:47:13.268Z,4.10
2023-03-15T08:49:45.123Z,4.05
2023-03-15T08:52:18.242Z,4.05
2023-03-15T08:54:50.510Z,4.04
2023-03-15T08:57:26.135Z,4.06
2023-03-15T08:59:57.965Z,4.10
2023-03-15T09:02:30.225Z,4.16
2023-03-15T09:05:02.198Z,4.20
2023-03-15T09:07:34.622Z,4.27
2023-03-15T09:10:07.241Z,4.36
2023-03-15T09:12:39.391Z,4.45
2023-03-15T09:15:12.980Z,4.52
2023-03-15T09:17:46.204Z,4.62
2023-03-15T09:20:19.403Z,4.67
2023-03-15T09:22:55.201Z,4.70
2023-03-15T09:25:27.673Z,4.73
2023-03-15T09:27:59.636Z,4.82
2023-03-15T09:30:31.599Z,4.99
2023-03-15T09:33:03.794Z,5.21
2023-03-15T09:35:35.672Z,5.29
2023-03-15T09:38:08.010Z,5.30
2023-03-15T09:40:45.144Z,5.27
2023-03-15T09:43:44.199Z,5.30
2023-03-15T09:46:27.928Z,5.39
2023-03-15T09:49:04.602Z,5.43
2023-03-15T09:51:42.529Z,5.57
2023-03-15T09:54:19.175Z,5.66
2023-03-15T09:56:56.625Z,5.70
2023-03-15T09:59:33.350Z,5.80
2023-03-15T10:02:16.054Z,5.87
2023-03-15T10:04:48.989Z,6.03
2023-03-15T10:07:21.126Z,6.19
2023-03-15T10:09:53.420Z,6.38
2023-03-15T10:12:30.950Z,6.46
2023-03-15T10:15:21.888Z,6.44
2023-03-15T10:18:06.228Z,6.47
2023-03-15T10:20:42.655Z,6.47
2023-03-15T10:23:18.199Z,6.30
2023-03-15T10:25:52.251Z,6.25
2023-03-15T10:28:24.950Z,6.25
2023-03-15T10:30:57.991Z,6.34
2023-03-15T10:33:33.066Z,6.37
2023-03-15T10:36:12.312Z,6.38
2023-03-15T10:38:44.825Z,6.46
2023-03-15T10:41:30.471Z,6.50
2023-03-15T10:44:03.919Z,6.65
2023-03-15T10:46:36.197Z,6.74
2023-03-15T10:49:14.845Z,6.71
2023-03-15T10:51:48.685Z,6.78
2023-03-15T10:54:22.018Z,6.90
2023-03-15T10:56:57.308Z,6.96
2023-03-15T10:59:30.882Z,6.99
2023-03-15T11:02:16.519Z,6.99
2023-03-15T11:04:51.521Z,6.98
2023-03-15T11:07:23.405Z,6.89
2023-03-15T11:10:00.124Z,6.88
2023-03-15T11:12:33.816Z,6.88
2023-03-15T11:15:10.054Z,6.77
2023-03-15T11:17:45.757Z,6.59
2023-03-15T11:20:30.612Z,6.46
2023-03-15T11:23:03.592Z,6.41
2023-03-15T11:25:35.978Z,6.40
2023-03-15T11:28:10.252Z,6.40
2023-03-15T11:30:44.084Z,6.40
2023-03-15T11:33:27.063Z,6.36
2023-03-15T11:36:00.653Z,6.32
2023-03-15T11:38:35.258Z,6.38
2023-03-15T11:41:12.235Z,6.51
2023-03-15T11:43:51.848Z,6.61
2023-03-15T11:46:28.944Z,6.59
2023-03-15T11:49:06.411Z,6.50
2023-03-15T11:51:39.342Z,6.38
2023-03-15T11:54:17.307Z,6.37
2023-03-15T11:56:52.395Z,6.32
2023-03-15T11:59:28.789Z,6.27
2023-03-15T12:02:08.867Z,6.22
2023-03-15T12:04:47.295Z,6.14
2023-03-15T12:07:38.477Z,6.11
2023-03-15T12:10:35.243Z,6.11
2023-03-15T12:13:20.174Z,6.19
2023-03-15T12:15:53.378Z,6.30
2023-03-15T12:18:39.757Z,6.28
2023-03-15T12:21:15.224Z,6.26
2023-03-15T12:24:01.884Z,6.27
2023-03-15T12:26:45.333Z,6.35
2023-03-15T12:29:21.364Z,6.39
2023-03-15T12:31:59.400Z,6.42
2023-03-15T12:34:39.409Z,6.42
2023-03-15T12:37:16.838Z,6.41
2023-03-15T12:39:51.773Z,6.38
2023-03-15T12:43:11.632Z,6.38
2023-03-15T12:45:47.966Z,6.32
2023-03-15T12:48:30.465Z,6.37
2023-03-15T12:51:07.281Z,6.44
2023-03-15T12:53:44.010Z,6.52
2023-03-15T12:56:33.808Z,6.55
2023-03-15T12:59:13.858Z,6.52
2023-03-15T13:01:46.127Z,6.44
2023-03-15T13:04:18.118Z,6.38
2023-03-15T13:06:58.472Z,6.33
2023-03-15T13:09:45.925Z,6.29
2023-03-15T13:12:22.306Z,6.26
2023-03-15T13:14:56.755Z,6.19
2023-03-15T13:17:36.760Z,6.12
2023-03-15T13:20:23.189Z,6.04
2023-03-15T13:22:59.256Z,5.99
2023-03-15T13:25:35.612Z,5.96
2023-03-15T13:28:12.448Z,5.95
2023-03-15T13:30:48.063Z,5.90
2023-03-15T13:33:24.667Z,5.87
2023-03-15T13:36:02.098Z,5.87
2023-03-15T13:38:36.278Z,5.90
2023-03-15T13:41:16.527Z,5.96
2023-03-15T13:43:48.834Z,5.97
2023-03-15T13:46:22.911Z,5.97
2023-03-15T13:48:53.882Z,5.93
2023-03-15T13:51:28.716Z,5.88
2023-03-15T13:54:05.959Z,5.91
2023-03-15T13:56:49.259Z,5.97
2023-03-15T13:59:22.078Z,6.01
2023-03-15T14:01:55.307Z,6.05
2023-03-15T14:04:28.096Z,6.13
2023-03-15T14:07:16.729Z,6.24
2023-03-15T14:09:48.513Z,6.32
2023-03-15T14:12:23.259Z,6.37
2023-03-15T14:14:55.526Z,6.47
2023-03-15T14:17:30.596Z,6.55
2023-03-15T14:20:16.101Z,6.58
2023-03-15T14:22:47.945Z,6.58
2023-03-15T14:25:24.904Z,6.52
2023-03-15T14:27:57.205Z,6.49
2023-03-15T14:30:29.054Z,6.43
2023-03-15T14:33:04.652Z,6.34
2023-03-15T14:35:44.511Z,6.26
2023-03-15T14:38:22.686Z,6.23
2023-03-15T14:40:55.107Z,6.21
2023-03-15T14:43:27.134Z,6.16
2023-03-15T14:45:59.049Z,6.12
2023-03-15T14:48:32.814Z,6.05
2023-03-15T14:51:05.721Z,6.00
2023-03-15T14:53:38.975Z,5.93
2023-03-15T14:56:14.176Z,5.91
2023-03-15T14:58:46.307Z,5.90
2023-03-15T15:01:22.459Z,5.90
2023-03-15T15:03:58.564Z,5.88
2023-03-15T15:06:32.597Z,5.85
2023-03-15T15:09:06.223Z,5.85
2023-03-15T15:11:38.060Z,5.85
2023-03-15T15:14:13.267Z,5.86
2023-03-15T15:16:45.332Z,5.89
2023-03-15T15:19:17.722Z,5.91
2023-03-15T15:21:49.556Z,5.94
2023-03-15T15:24:22.959Z,5.94
2023-03-15T15:26:54.839Z,5.93
2023-03-15T15:29:27.247Z,5.91
2023-03-15T15:31:59.194Z,5.88
2023-03-15T15:34:34.260Z,5.83
2023-03-15T15:37:06.190Z,5.79
2023-03-15T15:39:38.224Z,5.74
2023-03-15T15:42:12.211Z,5.71
2023-03-15T15:44:46.148Z,5.70
2023-03-15T15:47:17.948Z,5.68
2023-03-15T15:49:50.565Z,5.65
2023-03-15T15:52:22.883Z,5.63
2023-03-15T15:54:55.615Z,5.59
2023-03-15T15:57:27.992Z,5.52
2023-03-15T16:00:00.291Z,5.48
2023-03-15T16:02:32.176Z,5.46
2023-03-15T16:05:04.617Z,5.43
2023-03-15T16:07:36.423Z,5.39
2023-03-15T16:10:12.343Z,5.37
2023-03-15T16:12:44.289Z,5.32
2023-03-15T16:15:18.203Z,5.29
2023-03-15T16:17:50.152Z,5.28
2023-03-15T16:20:22.400Z,5.23
2023-03-15T16:22:59.131Z,5.19
2023-03-15T16:25:33.790Z,5.15
2023-03-15T16:28:07.981Z,5.12
2023-03-15T16:30:41.472Z,5.08
2023-03-15T16:33:16.434Z,5.05
2023-03-15T16:35:50.552Z,4.97
2023-03-15T16:38:26.531Z,4.91
2023-03-15T16:40:58.568Z,4.85
2023-03-15T16:43:30.482Z,4.79
2023-03-15T16:46:03.005Z,4.73
2023-03-15T16:48:34.954Z,4.68
2023-03-15T16:51:07.470Z,4.63
2023-03-15T16:53:39.560Z,4.59
2023-03-15T16:56:15.009Z,4.55
2023-03-15T16:58:47.451Z,4.52
2023-03-15T17:01:19.999Z,4.50
2023-03-15T17:03:52.001Z,4.46
2023-03-15T17:06:25.485Z,4.40
2023-03-15T17:09:00.214Z,4.35
2023-03-15T17:11:33.032Z,4.31
2023-03-15T17:14:04.818Z,4.27
2023-03-15T17:16:37.504Z,4.23
2023-03-15T17:19:13.672Z,4.19
2023-03-15T17:21:46.410Z,4.16
2023-03-15T17:24:18.194Z,4.12
2023-03-15T17:26:50.729Z,4.07
2023-03-15T17:29:22.717Z,4.04
2023-03-15T17:31:54.671Z,4.01
2023-03-15T17:34:26.907Z,3.98
2023-03-15T17:36:58.896Z,3.96
2023-03-15T17:39:30.723Z,3.93
2023-03-15T17:42:03.009Z,3.91
2023-03-15T17:44:34.768Z,3.90
2023-03-15T17:47:09.378Z,3.88
2023-03-15T17:49:41.370Z,3.85
2023-03-15T17:52:17.441Z,3.82
2023-03-15T17:54:49.276Z,3.81
2023-03-15T17:57:21.585Z,3.79
2023-03-15T17:59:53.790Z,3.77
2023-03-15T18:02:26.125Z,3.74
2023-03-15T18:04:57.981Z,3.71
2023-03-15T18:07:31.149Z,3.69
2023-03-15T18:10:03.059Z,3.66
2023-03-15T18:12:35.651Z,3.65
2023-03-15T18:15:09.000Z,3.61
2023-03-15T18:17:41.254Z,3.58
2023-03-15T18:20:15.241Z,3.54
2023-03-15T18:22:46.148Z,3.50
2023-03-15T18:25:21.753Z,3.47
2023-03-15T18:27:54.473Z,3.44
2023-03-15T18:30:27.752Z,3.41
2023-03-15T18:33:00.903Z,3.39
2023-03-15T18:35:34.499Z,3.37
2023-03-15T18:38:07.053Z,3.34
2023-03-15T18:40:39.004Z,3.33
2023-03-15T18:43:15.042Z,3.30
2023-03-15T18:45:47.007Z,3.27
2023-03-15T18:48:34.132Z,3.23
2023-03-15T18:51:13.819Z,3.20
2023-03-15T18:53:47.011Z,3.18
2023-03-15T18:56:21.673Z,3.16
2023-03-15T18:58:55.263Z,3.13
2023-03-15T19:01:27.215Z,3.11
2023-03-15T19:03:59.740Z,3.09
2023-03-15T19:06:32.363Z,3.07
2023-03-15T19:09:05.832Z,3.05
2023-03-15T19:11:41.842Z,3.03
2023-03-15T19:14:14.569Z,3.02
2023-03-15T19:16:46.439Z,3.01
2023-03-15T19:19:18.787Z,3.00
2023-03-15T19:21:51.079Z,2.99
2023-03-15T19:24:23.626Z,2.98
2023-03-15T19:26:55.570Z,2.97
2023-03-15T19:29:27.782Z,2.96
2023-03-15T19:32:00.279Z,2.93
2023-03-15T19:34:33.005Z,2.91
2023-03-15T19:37:04.834Z,2.90
2023-03-15T19:39:37.324Z,2.88
2023-03-15T19:42:09.267Z,2.85
2023-03-15T19:44:43.594Z,2.82
2023-03-15T19:47:15.498Z,2.82
2023-03-15T19:49:47.620Z,2.80
2023-03-15T19:52:19.466Z,2.78
2023-03-15T19:54:52.121Z,2.76
2023-03-15T19:57:23.967Z,2.73
2023-03-15T19:59:56.483Z,2.72
2023-03-15T20:02:28.299Z,2.71
2023-03-15T20:05:01.784Z,2.71
2023-03-15T20:07:33.588Z,2.71
2023-03-15T20:10:08.534Z,2.69
2023-03-15T20:12:42.479Z,2.69
2023-03-15T20:15:17.280Z,2.68
2023-03-15T20:17:49.098Z,2.67
2023-03-15T20:20:21.769Z,2.65
2023-03-15T20:22:53.858Z,2.64
2023-03-15T20:25:26.150Z,2.63
2023-03-15T20:27:57.962Z,2.61
2023-03-15T20:30:30.234Z,2.60
2023-03-15T20:33:02.049Z,2.60
2023-03-15T20:35:34.130Z,2.59
2023-03-15T20:38:08.262Z,2.59
2023-03-15T20:40:42.054Z,2.58
2023-03-15T20:43:13.922Z,2.58
2023-03-15T20:45:46.138Z,2.57
2023-03-15T20:48:18.238Z,2.57
2023-03-15T20:50:52.272Z,2.55
2023-03-15T20:53:23.285Z,2.53
2023-03-15T20:55:55.268Z,2.52
2023-03-15T20:58:27.416Z,2.51
2023-03-15T21:01:06.018Z,2.51
2023-03-15T21:03:38.291Z,2.50
2023-03-15T21:06:11.170Z,2.50
2023-03-15T21:08:45.156Z,2.49
2023-03-15T21:11:17.082Z,2.49
2023-03-15T21:13:49.151Z,2.48
2023-03-15T21:16:21.174Z,2.48
2023-03-15T21:18:54.798Z,2.48
2023-03-15T21:21:26.678Z,2.48
2023-03-15T21:23:58.634Z,2.48
2023-03-15T21:26:30.674Z,2.47
2023-03-15T21:29:02.587Z,2.48
2023-03-15T21:31:36.702Z,2.49
2023-03-15T21:34:08.656Z,2.48
2023-03-15T21:36:40.760Z,2.48
2023-03-15T21:39:12.712Z,2.47
2023-03-15T21:41:44.504Z,2.47
2023-03-15T21:44:16.369Z,2.47
2023-03-15T21:46:48.507Z,2.47
2023-03-15T21:49:20.491Z,2.47
2023-03-15T21:51:52.915Z,2.46
2023-03-15T21:54:24.898Z,2.45
2023-03-15T21:56:56.782Z,2.45
2023-03-15T21:59:28.777Z,2.43
2023-03-15T22:02:01.735Z,2.43
2023-03-15T22:04:34.293Z,2.42
2023-03-15T22:07:06.370Z,2.40
2023-03-15T22:09:38.315Z,2.38
2023-03-15T22:12:12.158Z,2.37
2023-03-15T22:14:47.352Z,2.36
2023-03-15T22:17:21.423Z,2.35
2023-03-15T22:19:54.036Z,2.34
2023-03-15T22:22:25.862Z,2.33
2023-03-15T22:24:57.919Z,2.32
2023-03-15T22:27:29.881Z,2.32
2023-03-15T22:30:01.723Z,2.31
2023-03-15T22:32:33.891Z,2.31
2023-03-15T22:35:06.471Z,2.30
2023-03-15T22:37:38.442Z,2.29
2023-03-15T22:40:14.211Z,2.28
2023-03-15T22:42:47.002Z,2.25
2023-03-15T22:45:19.117Z,2.24
2023-03-15T22:47:51.649Z,2.22
2023-03-15T22:50:24.072Z,2.20
2023-03-15T22:52:57.089Z,2.19
2023-03-15T22:55:28.862Z,2.17
2023-03-15T22:58:00.758Z,2.16
2023-03-15T23:00:32.575Z,2.13
2023-03-15T23:03:05.018Z,2.11
2023-03-15T23:05:38.035Z,2.08
2023-03-15T23:08:10.524Z,2.06
2023-03-15T23:10:43.352Z,2.05
2023-03-15T23:13:15.692Z,2.01
2023-03-15T23:15:47.495Z,1.99
2023-03-15T23:18:20.044Z,1.95
2023-03-15T23:20:51.861Z,1.91
2023-03-15T23:23:25.417Z,1.87
2023-03-15T23:25:57.719Z,1.83
2023-03-15T23:28:29.607Z,1.80
2023-03-15T23:31:04.303Z,1.75
2023-03-15T23:33:36.796Z,1.70
2023-03-15T23:36:09.888Z,1.68
2023-03-15T23:38:41.910Z,1.64
2023-03-15T23:41:14.289Z,1.61
2023-03-15T23:43:46.280Z,1.57
2023-03-15T23:46:18.409Z,1.54
2023-03-15T23:48:50.460Z,1.51
2023-03-15T23:51:22.467Z,1.47
2023-03-15T23:53:54.355Z,1.44
2023-03-15T23:56:26.442Z,1.42
2023-03-15T23:58:58.944Z,1.38
